hwlogo.jpg (8581 bytes)
Home Your Weather Products Services Weather On Your Site Contact
HW Version Logo
Weather Info
Your Weather (Options)
Canadian Weather
International Weather
Enter your " Place, State", US Zip Code or ICAO:  
Forecast Information Radar Information
Buttonville, Ontario, Canada  Lat: 43.85N, Lon: 79.37W
ICAO Used: CYKZ
Current Conditions
Updated: 1:00 PM EST THU FEB 22 2018
Sun & Moon Information
Overcast
Overcast
Temp: 0°C
Humidity: 54%
Wind Speed: ENE 7 MPH
Barometer: 1038 mb
Dewpoint: -8°C
Heat Index: 0°C
Wind Chill: -4°C
Civil Twilight: 6:38 AM EST Moon Phase:
Waxing Gibbous Moon
Sunrise: 7:08 AM EST
Sunset: 5:53 PM EST
Civil Twilight: 6:22 PM EST
Forecast for Buttonville, ON:
(Forecast based on TAF for )
0142 PM EST THU FEB 22 2018
  
AFTERNOON EVENING OVERNIGHT
Overcast Mostly
Cloudy
Mostly
Cloudy
ZoneCast:
Dated: 0142 PM EST THU FEB 22 2018
Afternoon...Overcast with winds from the eastnortheast at 9 mph.

Evening...Overcast with winds from the eastnortheast at 9 mph. Turning mostly cloudy with winds from the east at 14 mph.

Overnight...Mostly cloudy with winds from the east at 14 mph.

Original Encoded TAF:
Dated: 0142 PM EST THU FEB 22 2018
2018/02/22 18:42
TAF CYKZ 221738Z 2218/2306 07008KT P6SM FEW020 OVC110 
     FM222200 08012KT P6SM SCT012 BKN110 
      RMK NXT FCST BY 230000Z